createdAt,value
2023-04-16T00:02:57.417Z,99.87
2023-04-16T00:06:00.898Z,99.96
2023-04-16T00:09:04.456Z,100.00
2023-04-16T00:12:09.372Z,100.00
2023-04-16T00:15:12.289Z,100.00
2023-04-16T00:18:15.499Z,100.00
2023-04-16T00:21:18.412Z,100.00
2023-04-16T00:24:21.471Z,100.00
2023-04-16T00:27:24.236Z,100.00
2023-04-16T00:30:27.099Z,100.00
2023-04-16T00:33:30.577Z,100.00
2023-04-16T00:36:33.562Z,100.00
2023-04-16T00:39:39.183Z,100.00
2023-04-16T00:42:42.113Z,100.00
2023-04-16T00:45:44.695Z,100.00
2023-04-16T00:48:49.529Z,100.00
2023-04-16T00:51:52.470Z,100.00
2023-04-16T00:54:56.477Z,100.00
2023-04-16T00:57:58.938Z,100.00
2023-04-16T01:01:02.115Z,100.00
2023-04-16T01:04:07.207Z,100.00
2023-04-16T01:07:10.105Z,100.00
2023-04-16T01:10:16.731Z,100.00
2023-04-16T01:13:21.800Z,100.00
2023-04-16T01:16:26.921Z,100.00
2023-04-16T01:19:36.452Z,100.00
2023-04-16T01:22:39.140Z,100.00
2023-04-16T01:25:42.172Z,100.00
2023-04-16T01:28:44.844Z,100.00
2023-04-16T01:31:48.290Z,100.00
2023-04-16T01:34:51.724Z,100.00
2023-04-16T01:37:54.805Z,100.00
2023-04-16T01:40:59.950Z,100.00
2023-04-16T01:44:03.094Z,100.00
2023-04-16T01:47:08.526Z,100.00
2023-04-16T01:50:12.086Z,100.00
2023-04-16T01:53:16.686Z,100.00
2023-04-16T01:56:20.181Z,100.00
2023-04-16T01:59:23.072Z,100.00
2023-04-16T02:02:29.128Z,100.00
2023-04-16T02:05:32.276Z,100.00
2023-04-16T02:08:35.868Z,100.00
2023-04-16T02:11:39.096Z,100.00
2023-04-16T02:14:43.342Z,100.00
2023-04-16T02:17:48.722Z,100.00
2023-04-16T02:20:51.852Z,100.00
2023-04-16T02:23:54.412Z,100.00
2023-04-16T02:26:58.709Z,100.00
2023-04-16T02:30:04.896Z,100.00
2023-04-16T02:33:11.346Z,100.00
2023-04-16T02:36:14.855Z,100.00
2023-04-16T02:39:17.899Z,100.00
2023-04-16T02:42:21.428Z,100.00
2023-04-16T02:45:24.912Z,100.00
2023-04-16T02:48:27.712Z,100.00
2023-04-16T02:51:31.068Z,100.00
2023-04-16T02:54:35.949Z,100.00
2023-04-16T02:57:39.159Z,100.00
2023-04-16T03:00:41.965Z,100.00
2023-04-16T03:03:45.315Z,100.00
2023-04-16T03:06:48.998Z,100.00
2023-04-16T03:09:52.210Z,100.00
2023-04-16T03:12:56.915Z,100.00
2023-04-16T03:16:00.689Z,100.00
2023-04-16T03:19:06.747Z,100.00
2023-04-16T03:22:12.587Z,100.00
2023-04-16T03:25:15.502Z,100.00
2023-04-16T03:28:19.332Z,100.00
2023-04-16T03:31:24.607Z,100.00
2023-04-16T03:34:30.523Z,100.00
2023-04-16T03:37:33.845Z,100.00
2023-04-16T03:40:37.348Z,100.00
2023-04-16T03:43:40.161Z,100.00
2023-04-16T03:46:43.547Z,100.00
2023-04-16T03:49:46.914Z,100.00
2023-04-16T03:52:51.025Z,100.00
2023-04-16T03:55:55.391Z,100.00
2023-04-16T03:58:59.183Z,100.00
2023-04-16T04:02:02.576Z,100.00
2023-04-16T04:05:08.133Z,100.00
2023-04-16T04:08:12.411Z,100.00
2023-04-16T04:11:17.519Z,100.00
2023-04-16T04:14:21.776Z,100.00
2023-04-16T04:17:24.802Z,100.00
2023-04-16T04:20:29.012Z,100.00
2023-04-16T04:23:32.421Z,100.00
2023-04-16T04:26:36.195Z,100.00
2023-04-16T04:29:40.059Z,100.00
2023-04-16T04:32:43.063Z,100.00
2023-04-16T04:35:47.105Z,100.00
2023-04-16T04:38:51.616Z,100.00
2023-04-16T04:41:58.760Z,100.00
2023-04-16T04:45:01.889Z,100.00
2023-04-16T04:48:08.905Z,100.00
2023-04-16T04:51:11.905Z,100.00
2023-04-16T04:54:19.849Z,100.00
2023-04-16T04:57:25.243Z,100.00
2023-04-16T05:00:33.874Z,100.00
2023-04-16T05:03:39.740Z,100.00
2023-04-16T05:06:44.710Z,99.86
2023-04-16T05:09:52.685Z,100.00
2023-04-16T05:12:58.946Z,100.00
2023-04-16T05:16:02.113Z,100.00
2023-04-16T05:19:07.402Z,100.00
2023-04-16T05:22:11.183Z,100.00
2023-04-16T05:25:14.776Z,99.69
2023-04-16T05:28:24.636Z,99.42
2023-04-16T05:31:29.255Z,99.10
2023-04-16T05:34:35.237Z,98.39
2023-04-16T05:37:39.787Z,98.79
2023-04-16T05:40:50.630Z,98.23
2023-04-16T05:43:55.828Z,98.31
2023-04-16T05:47:09.573Z,98.52
2023-04-16T05:50:14.220Z,98.81
2023-04-16T05:53:19.148Z,98.45
2023-04-16T05:56:26.226Z,98.06
2023-04-16T05:59:32.007Z,97.37
2023-04-16T06:02:37.731Z,95.31
2023-04-16T06:05:47.955Z,92.59
2023-04-16T06:08:59.836Z,92.17
2023-04-16T06:12:11.945Z,89.75
2023-04-16T06:15:16.716Z,86.96
2023-04-16T06:18:23.717Z,89.82
2023-04-16T06:21:27.178Z,90.13
2023-04-16T06:24:45.603Z,90.01
2023-04-16T06:27:53.470Z,90.21
2023-04-16T06:30:58.310Z,89.88
2023-04-16T06:34:14.208Z,89.05
2023-04-16T06:37:19.186Z,88.36
2023-04-16T06:40:23.734Z,87.54
2023-04-16T06:43:35.413Z,85.86
2023-04-16T06:46:47.867Z,85.28
2023-04-16T06:49:58.204Z,84.61
2023-04-16T06:53:04.676Z,83.11
2023-04-16T06:56:09.425Z,82.52
2023-04-16T06:59:12.317Z,80.84
2023-04-16T07:02:21.088Z,79.06
2023-04-16T07:05:31.879Z,76.34
2023-04-16T07:08:36.694Z,77.47
2023-04-16T07:11:42.276Z,76.99
2023-04-16T07:14:56.911Z,78.43
2023-04-16T07:18:10.780Z,78.38
2023-04-16T07:21:23.416Z,78.21
2023-04-16T07:24:28.202Z,76.58
2023-04-16T07:27:31.880Z,78.27
2023-04-16T07:30:39.721Z,77.92
2023-04-16T07:33:43.832Z,78.02
2023-04-16T07:36:49.716Z,78.21
2023-04-16T07:40:00.698Z,78.72
2023-04-16T07:43:04.613Z,79.45
2023-04-16T07:46:15.723Z,80.44
2023-04-16T07:49:22.639Z,79.98
2023-04-16T07:52:27.913Z,79.62
2023-04-16T07:55:32.881Z,77.93
2023-04-16T07:58:37.259Z,76.75
2023-04-16T08:01:43.127Z,74.96
2023-04-16T08:04:57.019Z,73.87
2023-04-16T08:08:01.570Z,73.20
2023-04-16T08:11:20.688Z,72.00
2023-04-16T08:14:35.770Z,71.62
2023-04-16T08:17:39.781Z,72.01
2023-04-16T08:20:45.710Z,72.80
2023-04-16T08:23:56.428Z,73.46
2023-04-16T08:27:15.441Z,72.60
2023-04-16T08:30:25.782Z,72.32
2023-04-16T08:33:31.775Z,72.54
2023-04-16T08:36:41.989Z,73.64
2023-04-16T08:39:45.127Z,73.99
2023-04-16T08:43:01.733Z,73.41
2023-04-16T08:46:07.005Z,72.54
2023-04-16T08:49:18.395Z,72.24
2023-04-16T08:52:30.941Z,72.77
2023-04-16T08:55:47.870Z,72.84
2023-04-16T08:59:08.236Z,72.77
2023-04-16T09:02:15.858Z,73.17
2023-04-16T09:05:21.146Z,73.62
2023-04-16T09:08:32.762Z,73.92
2023-04-16T09:11:45.830Z,73.61
2023-04-16T09:14:58.749Z,73.58
2023-04-16T09:18:02.808Z,73.46
2023-04-16T09:21:07.948Z,73.95
2023-04-16T09:24:13.704Z,73.35
2023-04-16T09:27:26.097Z,73.87
2023-04-16T09:30:29.223Z,73.89
2023-04-16T09:33:47.651Z,73.13
2023-04-16T09:36:56.541Z,71.89
2023-04-16T09:40:08.686Z,71.02
2023-04-16T09:43:23.621Z,72.14
2023-04-16T09:46:48.675Z,67.05
2023-04-16T09:49:53.944Z,67.24
2023-04-16T09:53:10.642Z,67.14
2023-04-16T09:56:26.437Z,66.48
2023-04-16T09:59:38.087Z,65.55
2023-04-16T10:02:42.645Z,65.55
2023-04-16T10:05:46.978Z,65.11
2023-04-16T10:08:59.767Z,65.03
2023-04-16T10:12:11.613Z,64.79
2023-04-16T10:15:17.727Z,63.22
2023-04-16T10:18:26.509Z,63.71
2023-04-16T10:21:38.185Z,63.94
2023-04-16T10:24:47.238Z,63.80
2023-04-16T10:27:52.208Z,64.99
2023-04-16T10:30:58.720Z,64.38
2023-04-16T10:34:08.800Z,64.36
2023-04-16T10:37:18.069Z,62.69
2023-04-16T10:40:26.254Z,60.93
2023-04-16T10:43:42.784Z,60.56
2023-04-16T10:46:56.192Z,59.35
2023-04-16T10:50:00.545Z,57.77
2023-04-16T10:53:27.333Z,58.82
2023-04-16T10:56:33.149Z,60.24
2023-04-16T10:59:40.726Z,56.51
2023-04-16T11:02:44.229Z,55.79
2023-04-16T11:05:52.771Z,55.98
2023-04-16T11:09:03.345Z,53.85
2023-04-16T11:12:23.734Z,54.34
2023-04-16T11:15:35.116Z,53.99
2023-04-16T11:18:51.465Z,53.98
2023-04-16T11:21:57.894Z,55.50
2023-04-16T11:25:03.728Z,53.79
2023-04-16T11:28:07.934Z,52.59
2023-04-16T11:31:12.753Z,53.56
2023-04-16T11:34:23.287Z,52.73
2023-04-16T11:37:36.543Z,54.02
2023-04-16T11:40:49.118Z,53.75
2023-04-16T11:43:53.680Z,54.36
2023-04-16T11:47:07.857Z,54.81
2023-04-16T11:50:27.826Z,55.08
2023-04-16T11:53:32.253Z,53.24
2023-04-16T11:56:49.724Z,54.72
2023-04-16T12:00:02.140Z,53.83
2023-04-16T12:03:19.963Z,53.53
2023-04-16T12:06:26.180Z,54.77
2023-04-16T12:09:41.760Z,53.85
2023-04-16T12:12:51.652Z,54.69
2023-04-16T12:15:57.067Z,52.69
2023-04-16T12:19:12.004Z,53.00
2023-04-16T12:22:23.866Z,53.82
2023-04-16T12:25:32.267Z,52.78
2023-04-16T12:28:48.852Z,53.20
2023-04-16T12:31:59.610Z,53.47
2023-04-16T12:35:09.414Z,52.58
2023-04-16T12:38:15.523Z,50.80
2023-04-16T12:41:30.753Z,50.60
2023-04-16T12:44:33.980Z,50.51
2023-04-16T12:47:39.818Z,49.22
2023-04-16T12:50:53.957Z,49.31
2023-04-16T12:54:06.390Z,47.92
2023-04-16T12:57:11.699Z,47.17
2023-04-16T13:00:30.765Z,48.20
2023-04-16T13:03:45.957Z,47.65
2023-04-16T13:06:55.937Z,48.02
2023-04-16T13:10:00.472Z,48.55
2023-04-16T13:13:03.376Z,49.70
2023-04-16T13:16:08.815Z,49.24
2023-04-16T13:19:11.810Z,48.67
2023-04-16T13:22:19.473Z,49.52
2023-04-16T13:25:28.097Z,50.69
2023-04-16T13:28:38.627Z,50.03
2023-04-16T13:31:48.893Z,49.38
2023-04-16T13:35:07.029Z,50.23
2023-04-16T13:38:16.978Z,49.37
2023-04-16T13:41:32.713Z,49.50
2023-04-16T13:44:54.755Z,49.51
2023-04-16T13:48:01.506Z,47.97
2023-04-16T13:51:07.811Z,48.00
2023-04-16T13:54:11.302Z,48.39
2023-04-16T13:57:29.689Z,48.21
2023-04-16T14:00:34.199Z,47.33
2023-04-16T14:03:39.105Z,47.79
2023-04-16T14:06:43.678Z,46.75
2023-04-16T14:09:53.977Z,47.27
2023-04-16T14:12:59.764Z,48.45
2023-04-16T14:16:26.654Z,47.59
2023-04-16T14:19:34.801Z,48.02
2023-04-16T14:22:40.725Z,48.01
2023-04-16T14:25:55.840Z,47.94
2023-04-16T14:29:09.341Z,48.52
2023-04-16T14:32:26.082Z,46.07
2023-04-16T14:35:29.532Z,46.12
2023-04-16T14:38:37.845Z,46.95
2023-04-16T14:41:50.658Z,44.65
2023-04-16T14:45:01.922Z,47.72
2023-04-16T14:48:23.629Z,49.20
2023-04-16T14:51:39.634Z,50.77
2023-04-16T14:54:49.012Z,51.00
2023-04-16T14:57:53.764Z,51.92
2023-04-16T15:00:58.930Z,51.98
2023-04-16T15:04:09.819Z,51.66
2023-04-16T15:07:16.238Z,50.56
2023-04-16T15:10:30.341Z,51.98
2023-04-16T15:13:40.454Z,52.61
2023-04-16T15:16:46.979Z,52.85
2023-04-16T15:19:57.752Z,54.08
2023-04-16T15:23:09.735Z,53.36
2023-04-16T15:26:16.510Z,53.99
2023-04-16T15:29:23.616Z,54.26
2023-04-16T15:32:31.811Z,54.07
2023-04-16T15:35:39.834Z,54.43
2023-04-16T15:38:48.970Z,55.07
2023-04-16T15:44:59.584Z,55.40
2023-04-16T15:48:08.347Z,55.25
2023-04-16T15:51:15.335Z,55.12
2023-04-16T15:54:20.892Z,54.87
2023-04-16T15:57:32.636Z,55.18
2023-04-16T16:00:49.757Z,55.04
2023-04-16T16:04:17.697Z,55.36
2023-04-16T16:07:25.912Z,55.73
2023-04-16T16:10:32.168Z,55.79
2023-04-16T16:13:42.052Z,56.56
2023-04-16T16:16:58.642Z,56.31
2023-04-16T16:20:05.763Z,56.65
2023-04-16T16:23:20.848Z,56.71
2023-04-16T16:26:27.332Z,56.55
2023-04-16T16:29:32.166Z,55.74
2023-04-16T16:32:44.820Z,55.71
2023-04-16T16:35:56.697Z,55.27
2023-04-16T16:39:11.894Z,55.33
2023-04-16T16:42:24.216Z,54.66
2023-04-16T16:45:35.759Z,55.59
2023-04-16T16:48:44.778Z,54.83
2023-04-16T16:52:01.836Z,55.10
2023-04-16T16:55:13.041Z,55.41
2023-04-16T16:58:29.988Z,55.91
2023-04-16T17:01:36.806Z,55.91
2023-04-16T17:04:42.876Z,56.53
2023-04-16T17:07:54.026Z,56.64
2023-04-16T17:10:57.977Z,56.95
2023-04-16T17:14:08.170Z,57.39
2023-04-16T17:17:19.708Z,58.05
2023-04-16T17:20:33.056Z,58.21
2023-04-16T17:23:41.221Z,58.54
2023-04-16T17:26:45.354Z,58.90
2023-04-16T17:29:53.046Z,58.98
2023-04-16T17:33:10.776Z,59.44
2023-04-16T17:36:14.987Z,59.71
2023-04-16T17:39:37.947Z,60.22
2023-04-16T17:42:42.310Z,60.73
2023-04-16T17:45:58.923Z,60.94
2023-04-16T17:49:03.021Z,61.26
2023-04-16T17:52:07.032Z,61.77
2023-04-16T17:55:13.548Z,62.12
2023-04-16T17:58:20.560Z,62.99
2023-04-16T18:01:28.781Z,63.00
2023-04-16T18:04:45.849Z,62.59
2023-04-16T18:07:50.805Z,62.68
2023-04-16T18:11:21.635Z,62.53
2023-04-16T18:14:37.101Z,62.70
2023-04-16T18:17:41.105Z,63.39
2023-04-16T18:20:47.916Z,63.09
2023-04-16T18:24:00.754Z,63.54
2023-04-16T18:27:07.143Z,64.80
2023-04-16T18:30:20.173Z,64.16
2023-04-16T18:33:49.982Z,64.42
2023-04-16T18:36:52.147Z,64.99
2023-04-16T18:40:14.648Z,64.76
2023-04-16T18:43:20.752Z,64.80
2023-04-16T18:46:26.835Z,65.40
2023-04-16T18:49:37.748Z,65.48
2023-04-16T18:52:45.839Z,66.28
2023-04-16T18:55:55.092Z,66.41
2023-04-16T18:59:06.727Z,67.81
2023-04-16T19:02:15.700Z,67.96
2023-04-16T19:05:23.261Z,68.38
2023-04-16T19:08:27.771Z,68.64
2023-04-16T19:11:35.732Z,68.85
2023-04-16T19:14:39.780Z,69.17
2023-04-16T19:17:51.361Z,69.10
2023-04-16T19:21:09.661Z,69.42
2023-04-16T19:24:19.998Z,69.94
2023-04-16T19:27:24.115Z,70.30
2023-04-16T19:30:33.809Z,70.33
2023-04-16T19:33:47.037Z,70.90
2023-04-16T19:36:50.382Z,71.30
2023-04-16T19:40:00.728Z,71.43
2023-04-16T19:43:12.822Z,71.89
2023-04-16T19:46:29.633Z,72.24
2023-04-16T19:49:43.554Z,71.97
2023-04-16T19:52:51.730Z,71.94
2023-04-16T19:56:12.384Z,71.92
2023-04-16T19:59:17.734Z,72.05
2023-04-16T20:02:21.938Z,72.22
2023-04-16T20:05:29.334Z,72.36
2023-04-16T20:08:44.641Z,72.60
2023-04-16T20:11:49.750Z,73.18
2023-04-16T20:14:57.682Z,72.90
2023-04-16T20:18:02.933Z,73.28
2023-04-16T20:21:10.019Z,72.94
2023-04-16T20:24:15.548Z,73.36
2023-04-16T20:27:19.526Z,73.36
2023-04-16T20:30:29.810Z,73.56
2023-04-16T20:33:33.709Z,73.72
2023-04-16T20:36:39.013Z,74.24
2023-04-16T20:39:46.729Z,73.97
2023-04-16T20:42:52.423Z,74.21
2023-04-16T20:46:08.038Z,74.39
2023-04-16T20:49:18.898Z,74.98
2023-04-16T20:52:22.223Z,75.37
2023-04-16T20:55:25.881Z,75.55
2023-04-16T20:58:30.615Z,75.47
2023-04-16T21:01:33.802Z,75.69
2023-04-16T21:04:37.297Z,75.97
2023-04-16T21:07:49.797Z,75.66
2023-04-16T21:10:54.153Z,75.41
2023-04-16T21:13:57.961Z,74.99
2023-04-16T21:17:02.266Z,74.54
2023-04-16T21:20:07.911Z,73.57
2023-04-16T21:23:14.052Z,73.51
2023-04-16T21:26:18.113Z,73.51
2023-04-16T21:29:25.118Z,73.49
2023-04-16T21:32:28.778Z,72.84
2023-04-16T21:35:33.460Z,72.55
2023-04-16T21:38:38.979Z,71.41
2023-04-16T21:41:42.530Z,70.80
2023-04-16T21:44:49.354Z,70.03
2023-04-16T21:47:53.019Z,67.86
2023-04-16T21:51:10.127Z,63.94
2023-04-16T21:54:13.886Z,62.67
2023-04-16T21:57:18.297Z,63.86
2023-04-16T22:00:22.779Z,64.67
2023-04-16T22:03:26.786Z,65.97
2023-04-16T22:06:29.644Z,65.06
2023-04-16T22:09:32.604Z,66.27
2023-04-16T22:12:38.664Z,65.63
2023-04-16T22:15:41.476Z,66.30
2023-04-16T22:18:47.489Z,66.69
2023-04-16T22:21:50.388Z,67.11
2023-04-16T22:24:53.542Z,67.35
2023-04-16T22:28:06.431Z,67.83
2023-04-16T22:31:11.986Z,67.89
2023-04-16T22:34:16.094Z,68.24
2023-04-16T22:37:19.172Z,68.64
2023-04-16T22:40:22.435Z,68.85
2023-04-16T22:43:25.545Z,68.99
2023-04-16T22:46:28.917Z,69.24
2023-04-16T22:49:33.304Z,69.34
2023-04-16T22:52:37.090Z,69.63
2023-04-16T22:55:39.959Z,69.74
2023-04-16T22:58:42.454Z,70.16
2023-04-16T23:01:46.772Z,70.65
2023-04-16T23:04:49.483Z,71.37
2023-04-16T23:07:56.247Z,71.63
2023-04-16T23:11:01.710Z,71.91
2023-04-16T23:14:07.880Z,72.09
2023-04-16T23:17:10.643Z,72.67
2023-04-16T23:20:15.079Z,72.90
2023-04-16T23:23:18.545Z,73.02
2023-04-16T23:26:21.881Z,73.17
2023-04-16T23:29:24.599Z,73.18
2023-04-16T23:32:28.037Z,73.41
2023-04-16T23:35:31.070Z,73.58
2023-04-16T23:38:35.969Z,73.83
2023-04-16T23:41:40.456Z,74.23
2023-04-16T23:44:44.613Z,74.14
2023-04-16T23:47:47.403Z,74.35
2023-04-16T23:50:50.470Z,74.36
2023-04-16T23:53:53.440Z,74.36
2023-04-16T23:56:59.997Z,74.13
